Time;durP1;ratioP1;P1;durP2;ratioP2;P2;SDS_P1;SDS_P2;PMS_P1;PMS_P2;Temp;Humidity;BMP_temperature;BMP_pressure;BME280_temperature;BME280_humidity;BME280_pressure;Samples;Min_cycle;Max_cycle;Signal;HPM_P1;HPM_P2
2023/01/09 00:01:56;;;;;;;0.50;0.50;;;;;;;4.99;100.00;98686.59;5027414;28;20025;-73
2023/01/09 00:04:22;;;;;;;0.50;0.50;;;;;;;5.08;100.00;98707.06;5027363;28;20061;-73
2023/01/09 00:06:52;;;;;;;0.70;0.70;;;;;;;5.18;100.00;98702.63;5042684;28;20109;-73
2023/01/09 00:09:20;;;;;;;7.78;1.90;;;;;;;5.34;100.00;98705.84;5027640;28;20030;-72
2023/01/09 00:11:46;;;;;;;0.50;0.50;;;;;;;5.23;100.00;98710.28;5027387;28;20018;-72
2023/01/09 00:14:12;;;;;;;0.70;0.70;;;;;;;5.19;100.00;98696.63;5027669;28;20014;-72
2023/01/09 00:16:38;;;;;;;0.50;0.50;;;;;;;5.18;100.00;98693.22;5027340;28;20048;-72
2023/01/09 00:19:03;;;;;;;0.80;0.80;;;;;;;5.14;100.00;98689.00;5027376;28;20030;-72
2023/01/09 00:21:28;;;;;;;0.50;0.50;;;;;;;5.20;100.00;98688.91;5027328;28;20030;-72
2023/01/09 00:23:54;;;;;;;1.23;1.23;;;;;;;5.19;100.00;98689.75;5027227;28;20018;-71
2023/01/09 00:26:20;;;;;;;0.50;0.50;;;;;;;5.24;100.00;98691.44;5027315;28;20097;-73
2023/01/09 00:28:47;;;;;;;0.50;0.50;;;;;;;5.20;100.00;98688.91;5042297;28;20023;-71
2023/01/09 00:31:13;;;;;;;0.95;0.95;;;;;;;5.24;100.00;98686.28;5027083;28;20056;-72
2023/01/09 00:33:53;;;;;;;0.50;0.50;;;;;;;5.26;99.69;98675.09;5025578;28;20018;-72
2023/01/09 00:36:19;;;;;;;5.40;4.88;;;;;;;5.36;98.80;98680.09;5027130;28;20032;-73
2023/01/09 00:38:44;;;;;;;0.52;0.52;;;;;;;5.28;99.33;98678.50;5026816;28;20069;-72
2023/01/09 00:41:14;;;;;;;0.90;0.90;;;;;;;5.21;99.70;98679.44;5026962;28;20056;-72
2023/01/09 00:43:45;;;;;;;0.50;0.50;;;;;;;5.27;99.45;98681.91;5025949;28;20026;-72
2023/01/09 00:46:12;;;;;;;1.55;1.52;;;;;;;5.35;99.33;98680.97;5042173;28;20029;-71
2023/01/09 00:48:42;;;;;;;1.77;1.70;;;;;;;5.27;99.60;98681.91;5026789;28;20030;-70
2023/01/09 00:51:07;;;;;;;0.50;0.50;;;;;;;5.38;98.50;98679.22;5042238;28;20049;-70
2023/01/09 00:53:36;;;;;;;4.22;3.97;;;;;;;5.29;99.58;98682.75;5026692;28;20022;-70
2023/01/09 00:56:06;;;;;;;0.43;0.43;;;;;;;5.29;100.00;98679.31;5026505;28;20569;-70
2023/01/09 00:58:33;;;;;;;0.50;0.50;;;;;;;5.31;99.77;98683.59;5026809;28;20057;-70
2023/01/09 01:00:58;;;;;;;0.50;0.50;;;;;;;5.36;99.55;98674.94;5041604;28;20026;-70
2023/01/09 01:03:24;;;;;;;0.50;0.50;;;;;;;5.57;98.00;98676.34;5026529;28;20101;-69
2023/01/09 01:08:33;;;;;;;2.05;1.42;;;;;;;5.46;98.23;98672.19;5026699;28;20033;-70
2023/01/09 01:11:04;;;;;;;1.73;1.63;;;;;;;5.42;98.71;98670.56;5026437;28;20029;-70
2023/01/09 01:13:29;;;;;;;2.88;2.67;;;;;;;5.36;99.51;98675.81;5026489;28;20152;-70
2023/01/09 01:15:54;;;;;;;3.92;3.60;;;;;;;5.37;99.06;98661.22;5026398;28;20022;-70
2023/01/09 01:18:20;;;;;;;2.05;1.95;;;;;;;5.33;99.80;98660.41;5042082;28;20518;-70
2023/01/09 01:20:45;;;;;;;0.70;0.70;;;;;;;5.43;99.82;98668.84;5026127;28;20026;-69
2023/01/09 01:23:11;;;;;;;0.50;0.50;;;;;;;5.38;100.00;98668.91;5026189;28;20474;-70
2023/01/09 01:25:40;;;;;;;0.50;0.50;;;;;;;5.35;100.00;98661.25;5026293;28;20033;-69
2023/01/09 01:28:06;;;;;;;0.50;0.50;;;;;;;5.38;100.00;98675.78;5026260;28;20033;-70
2023/01/09 01:30:32;;;;;;;0.50;0.50;;;;;;;5.37;100.00;98666.38;5026053;28;20081;-69
2023/01/09 01:32:57;;;;;;;0.50;0.50;;;;;;;5.45;100.00;98673.09;5025803;28;20025;-69
2023/01/09 01:35:23;;;;;;;0.50;0.50;;;;;;;5.57;100.00;98664.31;5025951;28;20033;-68
2023/01/09 01:37:48;;;;;;;2.25;2.00;;;;;;;5.52;100.00;98652.41;5025908;28;20025;-69
2023/01/09 01:40:14;;;;;;;0.55;0.55;;;;;;;5.51;99.63;98650.69;5025951;28;20489;-70
2023/01/09 01:42:48;;;;;;;1.70;1.60;;;;;;;5.42;100.00;98654.25;5025714;28;20061;-69
2023/01/09 01:45:14;;;;;;;0.50;0.50;;;;;;;5.40;100.00;98653.44;5025866;28;20109;-69
2023/01/09 01:47:58;;;;;;;0.50;0.50;;;;;;;5.49;99.84;98643.00;5026083;28;20055;-70
2023/01/09 01:50:33;;;;;;;0.50;0.50;;;;;;;5.43;99.15;98651.66;5041312;28;20041;-70
2023/01/09 01:53:14;;;;;;;0.88;0.88;;;;;;;5.33;99.83;98647.53;5040684;28;20426;-69
2023/01/09 01:55:44;;;;;;;0.52;0.52;;;;;;;5.32;99.43;98638.09;5025827;28;20037;-70
2023/01/09 01:58:14;;;;;;;0.50;0.50;;;;;;;5.34;98.80;98638.94;5025765;28;20022;-70
2023/01/09 02:00:43;;;;;;;0.70;0.70;;;;;;;5.19;98.69;98640.03;5025752;28;20057;-69
2023/01/09 02:03:09;;;;;;;0.50;0.50;;;;;;;5.30;97.99;98647.59;5040795;28;20025;-71
2023/01/09 02:05:37;;;;;;;0.50;0.50;;;;;;;5.29;98.34;98648.44;5040582;28;20057;-70
2023/01/09 02:08:04;;;;;;;13.23;2.85;;;;;;;5.24;98.56;98651.09;5025512;28;20063;-70
2023/01/09 02:10:31;;;;;;;1.38;0.95;;;;;;;5.25;98.25;98646.81;5025449;28;20026;-69
2023/01/09 02:12:56;;;;;;;2.08;1.90;;;;;;;5.19;98.65;98640.88;5025515;28;20026;-71
2023/01/09 02:15:22;;;;;;;0.60;0.60;;;;;;;5.26;98.15;98636.50;5025716;28;20072;-71
2023/01/09 02:17:50;;;;;;;0.70;0.70;;;;;;;5.16;98.09;98637.50;5025529;28;20032;-70
2023/01/09 02:20:34;;;;;;;0.50;0.50;;;;;;;5.21;97.72;98638.28;5025256;28;20022;-70
2023/01/09 02:23:37;;;;;;;0.70;0.70;;;;;;;5.17;97.60;98629.78;5025125;28;20026;-70
2023/01/09 02:26:12;;;;;;;0.50;0.50;;;;;;;5.21;96.97;98631.41;5025177;28;20045;-70
2023/01/09 02:28:56;;;;;;;0.57;0.57;;;;;;;5.13;97.70;98625.53;5025346;28;20548;-69
2023/01/09 02:31:28;;;;;;;0.50;0.50;;;;;;;4.98;98.18;98615.47;5025156;28;20033;-71
2023/01/09 02:34:12;;;;;;;0.50;0.50;;;;;;;5.12;97.98;98617.84;5024949;28;20022;-69
2023/01/09 02:37:00;;;;;;;0.50;0.50;;;;;;;5.07;98.04;98617.91;5025258;28;20026;-70
2023/01/09 02:39:32;;;;;;;0.50;0.50;;;;;;;5.14;97.00;98619.53;5024989;28;20050;-70
2023/01/09 02:42:04;;;;;;;0.53;0.53;;;;;;;5.14;96.96;98619.53;5023889;28;20777;-70
2023/01/09 02:44:34;;;;;;;1.02;1.02;;;;;;;4.95;98.25;98624.91;5023787;28;20345;-72
2023/01/09 02:47:03;;;;;;;0.50;0.50;;;;;;;5.24;96.98;98616.81;5025328;28;20025;-70
2023/01/09 02:49:29;;;;;;;1.10;1.10;;;;;;;4.94;98.17;98615.50;5024798;28;20069;-70
2023/01/09 02:52:08;;;;;;;1.05;1.05;;;;;;;5.03;98.71;98622.22;5025014;28;20022;-69
2023/01/09 02:54:48;;;;;;;0.57;0.57;;;;;;;4.99;98.42;98632.59;5040294;28;20041;-70
2023/01/09 02:57:38;;;;;;;0.50;0.50;;;;;;;4.98;98.42;98628.31;5025100;28;20030;-70
2023/01/09 03:00:45;;;;;;;0.50;0.50;;;;;;;4.99;99.11;98630.88;5025127;28;20029;-69
2023/01/09 03:03:47;;;;;;;0.65;0.65;;;;;;;5.02;99.32;98633.41;5025056;28;20022;-69
2023/01/09 03:06:16;;;;;;;;;;;;;;;5.06;99.33;98641.94;5027210;28;20025;-70
2023/01/09 03:08:47;;;;;;;0.95;0.95;;;;;;;5.04;98.86;98630.81;5028875;28;19985;-70
2023/01/09 03:11:13;;;;;;;0.50;0.50;;;;;;;5.01;98.79;98631.72;5028906;28;20026;-70
2023/01/09 03:13:47;;;;;;;0.50;0.50;;;;;;;5.04;98.87;98615.38;5028806;28;20045;-70
2023/01/09 03:16:19;;;;;;;0.52;0.52;;;;;;;5.01;98.75;98615.41;5028686;28;20077;-70
2023/01/09 03:18:47;;;;;;;0.57;0.57;;;;;;;5.02;98.86;98610.25;5028584;28;20052;-70
2023/01/09 03:21:14;;;;;;;2.05;1.95;;;;;;;4.98;98.92;98607.75;5028482;28;20073;-71
2023/01/09 03:23:45;;;;;;;2.92;2.72;;;;;;;5.17;98.70;98619.47;5028340;28;20037;-69
2023/01/09 03:26:10;;;;;;;0.60;0.60;;;;;;;5.15;98.01;98612.63;5028568;28;20029;-69
2023/01/09 03:28:36;;;;;;;0.50;0.50;;;;;;;5.24;97.47;98612.50;5028422;28;20029;-68
2023/01/09 03:31:01;;;;;;;0.50;0.50;;;;;;;5.24;97.48;98609.91;5028266;28;20056;-68
2023/01/09 03:33:27;;;;;;;0.50;0.50;;;;;;;5.10;97.90;98612.72;5028383;28;20022;-70
2023/01/09 03:35:53;;;;;;;3.22;2.92;;;;;;;5.05;98.74;98604.22;5028157;28;20049;-69
2023/01/09 03:38:18;;;;;;;0.63;0.63;;;;;;;5.08;98.44;98599.00;5028222;28;20030;-70
2023/01/09 03:40:44;;;;;;;0.50;0.50;;;;;;;5.07;99.14;98616.19;5028001;28;20537;-69
2023/01/09 03:43:09;;;;;;;0.50;0.50;;;;;;;5.21;98.92;98609.97;5027946;28;20037;-70
2023/01/09 03:45:34;;;;;;;0.50;0.50;;;;;;;5.40;97.03;98605.38;5043116;28;20030;-69
2023/01/09 03:48:00;;;;;;;0.50;0.50;;;;;;;5.23;97.00;98599.66;5027971;28;20029;-70
2023/01/09 03:50:25;;;;;;;0.80;0.80;;;;;;;5.33;96.85;98598.66;5027990;28;20034;-69
2023/01/09 03:52:51;;;;;;;0.50;0.50;;;;;;;5.28;97.42;98616.75;5027789;28;20034;-69
2023/01/09 03:55:16;;;;;;;0.50;0.50;;;;;;;5.28;97.21;98608.16;5027938;28;20029;-69
2023/01/09 03:57:42;;;;;;;0.50;0.50;;;;;;;5.30;96.40;98602.09;5027978;28;20033;-70
2023/01/09 04:00:08;;;;;;;0.70;0.70;;;;;;;5.29;96.73;98599.56;5027944;28;20030;-69
2023/01/09 04:02:33;;;;;;;0.50;0.50;;;;;;;5.27;96.85;98614.19;5027817;28;20715;-70
2023/01/09 04:04:59;;;;;;;0.50;0.50;;;;;;;5.42;96.23;98616.50;5027366;28;20030;-70
2023/01/09 04:07:24;;;;;;;0.95;0.95;;;;;;;5.23;96.59;98594.50;5027794;28;20037;-68
2023/01/09 04:09:50;;;;;;;0.50;0.50;;;;;;;5.30;96.60;98616.72;5027542;28;20025;-69
2023/01/09 04:12:15;;;;;;;0.50;0.50;;;;;;;5.32;96.16;98615.81;5027571;28;20064;-69
2023/01/09 04:14:40;;;;;;;0.50;0.50;;;;;;;5.21;97.30;98608.25;5027788;28;20049;-71
2023/01/09 04:17:06;;;;;;;0.52;0.52;;;;;;;5.33;96.43;98608.94;5026345;28;20028;-71
2023/01/09 04:19:31;;;;;;;0.50;0.50;;;;;;;5.32;96.09;98596.94;5027565;28;20030;-70
2023/01/09 04:21:56;;;;;;;0.50;0.50;;;;;;;5.15;97.22;98592.91;5027510;28;20025;-71
2023/01/09 04:24:22;;;;;;;0.50;0.50;;;;;;;5.12;97.17;98590.41;5027331;28;20025;-70
2023/01/09 04:26:47;;;;;;;0.50;0.50;;;;;;;5.16;97.68;98593.78;5042647;28;20040;-70
2023/01/09 04:29:12;;;;;;;1.98;1.88;;;;;;;5.26;96.44;98572.16;5027240;28;20026;-72
2023/01/09 04:31:38;;;;;;;0.65;0.65;;;;;;;5.14;96.65;98583.50;5042454;28;20026;-71
2023/01/09 04:34:03;;;;;;;0.50;0.50;;;;;;;5.11;97.22;98585.28;5027080;28;20065;-71
2023/01/09 04:36:29;;;;;;;1.20;1.10;;;;;;;5.12;96.51;98568.97;5027123;28;20025;-73
2023/01/09 04:38:54;;;;;;;1.55;1.48;;;;;;;4.91;97.68;98574.41;5025882;28;20072;-75
2023/01/09 04:44:04;;;;;;;0.50;0.50;;;;;;;5.08;97.72;98588.72;5026787;28;20028;-75
2023/01/09 04:46:30;;;;;;;0.50;0.50;;;;;;;5.07;97.48;98589.59;5026861;28;20030;-76
2023/01/09 04:48:55;;;;;;;1.33;1.25;;;;;;;5.02;97.23;98589.69;5027042;28;20036;-74
2023/01/09 04:51:20;;;;;;;1.38;1.35;;;;;;;4.86;98.62;98578.78;5026969;28;20034;-73
2023/01/09 04:53:46;;;;;;;0.50;0.50;;;;;;;4.94;99.13;98584.66;5042050;28;20113;-75
2023/01/09 04:56:11;;;;;;;0.50;0.50;;;;;;;4.93;99.63;98594.97;5026815;28;20032;-73
2023/01/09 04:58:37;;;;;;;0.50;0.50;;;;;;;5.03;98.67;98596.50;5026871;28;20085;-74
2023/01/09 05:01:02;;;;;;;0.50;0.50;;;;;;;5.02;98.37;98575.97;5041948;28;20022;-73
2023/01/09 05:03:27;;;;;;;1.30;1.30;;;;;;;5.22;96.55;98585.97;5026582;28;20053;-72
2023/01/09 05:05:53;;;;;;;0.60;0.60;;;;;;;5.23;96.16;98595.38;5026478;28;20022;-75
2023/01/09 05:08:18;;;;;;;0.50;0.50;;;;;;;5.14;96.93;98588.66;5026510;28;20052;-74
2023/01/09 05:10:43;;;;;;;0.57;0.57;;;;;;;5.24;95.87;98596.22;5041811;28;20033;-72
2023/01/09 05:13:09;;;;;;;2.28;1.45;;;;;;;5.15;96.77;98592.91;5026659;28;20212;-75
2023/01/09 05:15:34;;;;;;;1.48;1.40;;;;;;;5.19;96.76;98597.13;5026583;28;20026;-75
2023/01/09 05:18:00;;;;;;;0.50;0.50;;;;;;;5.07;97.30;98589.59;5026248;28;20025;-74
2023/01/09 05:20:25;;;;;;;0.50;0.50;;;;;;;5.15;96.75;98592.91;5026325;28;20034;-75
2023/01/09 05:22:50;;;;;;;0.50;0.50;;;;;;;5.03;97.97;98601.66;5026445;28;20118;-71
2023/01/09 05:25:16;;;;;;;0.50;0.50;;;;;;;5.11;97.16;98590.41;5026189;28;20029;-69
2023/01/09 05:27:44;;;;;;;0.50;0.50;;;;;;;5.18;97.03;98603.16;5026232;28;20030;-69
2023/01/09 05:30:11;;;;;;;0.50;0.50;;;;;;;5.25;96.41;98590.19;5025844;28;20439;-70
2023/01/09 05:32:36;;;;;;;0.50;0.50;;;;;;;5.26;96.00;98581.59;5025910;28;20068;-70
2023/01/09 05:35:02;;;;;;;0.50;0.50;;;;;;;5.23;96.81;98594.50;5025669;28;20022;-70
2023/01/09 05:37:27;;;;;;;2.53;2.42;;;;;;;5.12;97.68;98598.13;5025363;28;20442;-71
2023/01/09 05:39:53;;;;;;;0.50;0.50;;;;;;;5.36;96.46;98592.59;5040910;28;20042;-72
2023/01/09 05:42:18;;;;;;;0.50;0.50;;;;;;;5.29;96.72;98592.69;5026008;28;20026;-73
2023/01/09 05:44:43;;;;;;;0.50;0.50;;;;;;;5.20;96.91;98585.13;5024623;28;20136;-71
2023/01/09 05:47:09;;;;;;;0.50;0.50;;;;;;;5.24;96.24;98581.63;5025694;28;20033;-72
2023/01/09 05:49:34;;;;;;;0.70;0.70;;;;;;;5.16;96.83;98592.03;5040694;28;20341;-75
2023/01/09 05:51:59;;;;;;;0.60;0.60;;;;;;;5.21;97.10;98597.97;5025587;28;20026;-76
2023/01/09 05:54:25;;;;;;;0.50;0.50;;;;;;;5.32;96.55;98589.22;5025916;28;20022;-74
2023/01/09 05:56:50;;;;;;;1.25;1.25;;;;;;;5.40;95.91;98589.94;5026027;28;20096;-74
2023/01/09 05:59:16;;;;;;;0.50;0.50;;;;;;;5.21;96.87;98589.38;5025836;28;20386;-75
2023/01/09 06:01:41;;;;;;;0.52;0.52;;;;;;;5.30;96.19;98590.97;5025899;28;20063;-74
2023/01/09 06:04:06;;;;;;;0.50;0.50;;;;;;;5.34;96.75;98597.75;5025337;28;20187;-76
2023/01/09 06:06:32;;;;;;;0.50;0.50;;;;;;;5.32;96.42;98577.19;5025777;28;20025;-76
2023/01/09 06:08:57;;;;;;;0.50;0.50;;;;;;;5.35;96.45;98598.63;5024585;28;20441;-76
2023/01/09 06:11:23;;;;;;;0.70;0.70;;;;;;;5.26;97.57;98595.31;5025592;28;20045;-75
2023/01/09 06:13:48;;;;;;;0.50;0.50;;;;;;;5.31;97.45;98606.41;5025667;28;20055;-75
2023/01/09 06:16:14;;;;;;;0.50;0.50;;;;;;;5.19;98.08;98594.56;5025641;28;20026;-76
2023/01/09 06:18:39;;;;;;;0.57;0.57;;;;;;;5.26;98.37;98599.59;5025666;28;20040;-74
2023/01/09 06:21:05;;;;;;;0.65;0.65;;;;;;;5.13;98.48;98583.53;5025509;28;20085;-75
2023/01/09 06:23:30;;;;;;;0.50;0.50;;;;;;;5.28;98.23;98593.59;5025392;28;20022;-75
2023/01/09 06:25:55;;;;;;;0.60;0.60;;;;;;;5.26;98.70;98605.59;5025519;28;20431;-75
2023/01/09 06:28:21;;;;;;;1.17;1.17;;;;;;;5.27;98.77;98596.19;5025506;28;20048;-74
2023/01/09 06:30:49;;;;;;;1.67;1.60;;;;;;;5.34;98.55;98608.06;5025083;28;20026;-73
2023/01/09 06:33:15;;;;;;;0.50;0.50;;;;;;;5.36;98.32;98608.88;5024762;28;20478;-73
2023/01/09 06:35:40;;;;;;;0.63;0.63;;;;;;;5.37;98.03;98602.84;5025000;28;20025;-73
2023/01/09 06:38:06;;;;;;;0.82;0.82;;;;;;;5.32;98.86;98596.94;5025018;28;20090;-73
2023/01/09 06:40:31;;;;;;;0.50;0.50;;;;;;;5.40;98.29;98600.25;5024234;28;20058;-73
2023/01/09 06:42:56;;;;;;;0.55;0.55;;;;;;;5.35;98.46;98588.34;5028453;28;20266;-73
2023/01/09 06:45:22;;;;;;;0.50;0.50;;;;;;;5.41;98.43;98583.94;5029276;28;20033;-71
2023/01/09 06:47:48;;;;;;;0.60;0.60;;;;;;;5.52;97.37;98582.91;5027874;28;20103;-71
2023/01/09 06:50:14;;;;;;;0.50;0.50;;;;;;;5.40;98.13;98579.66;5044228;28;20073;-71
2023/01/09 06:52:40;;;;;;;0.50;0.50;;;;;;;5.32;98.66;98576.34;5044330;28;20018;-70
2023/01/09 06:55:06;;;;;;;0.40;0.40;;;;;;;5.38;98.84;98581.41;5029170;28;20022;-70
2023/01/09 06:57:31;;;;;;;3.08;2.83;;;;;;;5.49;98.20;98591.53;5044188;28;20022;-70
2023/01/09 06:59:57;;;;;;;0.68;0.68;;;;;;;5.49;97.82;98585.53;5029297;28;20033;-70
2023/01/09 07:02:23;;;;;;;0.50;0.50;;;;;;;5.57;97.09;98571.63;5029132;28;20030;-70
2023/01/09 07:04:48;;;;;;;1.00;1.00;;;;;;;5.56;96.77;98569.09;5028950;28;20081;-70
2023/01/09 07:07:13;;;;;;;0.57;0.57;;;;;;;5.55;96.95;98580.25;5028959;28;20106;-69
2023/01/09 07:09:39;;;;;;;0.50;0.50;;;;;;;5.50;97.24;98584.63;5028945;28;20036;-71
2023/01/09 07:12:05;;;;;;;0.50;0.50;;;;;;;5.53;97.25;98580.28;5028649;28;20021;-71
2023/01/09 07:14:30;;;;;;;0.57;0.57;;;;;;;5.74;96.24;98577.34;5028919;28;20022;-69
2023/01/09 07:16:56;;;;;;;0.50;0.50;;;;;;;5.61;95.81;98561.31;5028741;28;20026;-70
2023/01/09 07:19:22;;;;;;;0.50;0.50;;;;;;;5.61;96.23;98572.44;5028392;28;20963;-71
2023/01/09 07:21:47;;;;;;;0.50;0.50;;;;;;;5.62;96.23;98579.31;5028658;28;20045;-68
2023/01/09 07:24:13;;;;;;;0.50;0.50;;;;;;;5.58;96.25;98577.63;5028575;28;20032;-71
2023/01/09 07:26:38;;;;;;;0.50;0.50;;;;;;;5.67;96.14;98576.66;5028602;28;20382;-69
2023/01/09 07:29:04;;;;;;;0.50;0.50;;;;;;;5.54;96.84;98581.16;5028842;28;20022;-69
2023/01/09 07:31:29;;;;;;;0.50;0.50;;;;;;;5.49;97.60;98577.81;5028422;28;20419;-70
2023/01/09 07:33:55;;;;;;;0.50;0.50;;;;;;;5.43;97.68;98569.28;5028384;28;20021;-71
2023/01/09 07:36:20;;;;;;;1.60;1.58;;;;;;;5.55;97.15;98580.25;5028242;28;20026;-71
2023/01/09 07:38:46;;;;;;;0.95;0.95;;;;;;;5.52;97.31;98563.16;5028095;28;20033;-69
2023/01/09 07:41:11;;;;;;;0.50;0.50;;;;;;;5.45;97.63;98554.69;5028439;28;20036;-70
2023/01/09 07:43:38;;;;;;;0.50;0.50;;;;;;;5.46;98.23;98569.25;5028122;28;20049;-69
2023/01/09 07:46:04;;;;;;;0.50;0.50;;;;;;;5.46;97.14;98546.09;5028070;28;20026;-71
2023/01/09 07:48:29;;;;;;;0.50;0.50;;;;;;;5.47;97.73;98559.81;5028283;28;20056;-72
2023/01/09 07:50:54;;;;;;;0.50;0.50;;;;;;;5.40;97.74;98538.47;5028092;28;20033;-70
2023/01/09 07:53:20;;;;;;;0.50;0.50;;;;;;;5.42;97.71;98541.88;5027586;28;20030;-70
2023/01/09 07:55:46;;;;;;;1.50;1.40;;;;;;;5.46;97.37;98548.66;5027972;28;20026;-70
2023/01/09 07:58:11;;;;;;;0.50;0.50;;;;;;;5.37;97.95;98548.81;5027994;28;20030;-69
2023/01/09 08:00:37;;;;;;;0.50;0.50;;;;;;;5.41;98.24;98558.19;5028003;28;20021;-70
2023/01/09 08:03:02;;;;;;;0.85;0.85;;;;;;;5.50;97.00;98551.16;5027775;28;20041;-70
2023/01/09 08:05:27;;;;;;;0.68;0.68;;;;;;;5.44;97.61;98558.16;5027544;28;20029;-72
2023/01/09 08:07:53;;;;;;;0.98;0.98;;;;;;;5.40;97.18;98553.91;5042991;28;20109;-69
2023/01/09 08:10:19;;;;;;;0.77;0.77;;;;;;;5.45;96.85;98558.97;5027746;28;20030;-70
2023/01/09 08:12:46;;;;;;;0.52;0.52;;;;;;;5.58;95.56;98562.19;5027737;28;20029;-71
2023/01/09 08:15:11;;;;;;;0.93;0.93;;;;;;;5.48;95.83;98555.53;5027916;28;20207;-69
2023/01/09 08:17:39;;;;;;;0.50;0.50;;;;;;;5.42;96.50;98557.31;5027696;28;20036;-69
2023/01/09 08:20:05;;;;;;;0.50;0.50;;;;;;;5.38;96.38;98558.25;5027549;28;20033;-70
2023/01/09 08:22:30;;;;;;;0.50;0.50;;;;;;;5.48;95.63;98555.53;5027734;28;20026;-71
2023/01/09 08:24:56;;;;;;;0.50;0.50;;;;;;;5.51;95.19;98550.31;5027570;28;20028;-69
2023/01/09 08:27:21;;;;;;;1.35;1.35;;;;;;;5.60;93.96;98557.88;5027512;28;20034;-70
2023/01/09 08:29:47;;;;;;;0.60;0.60;;;;;;;5.59;93.95;98553.59;5027424;28;20032;-69
2023/01/09 08:32:12;;;;;;;0.80;0.80;;;;;;;5.64;92.73;98556.94;5027427;28;20029;-70
2023/01/09 08:34:37;;;;;;;0.73;0.73;;;;;;;5.43;94.54;98568.47;5025966;28;20116;-71
2023/01/09 08:37:03;;;;;;;0.50;0.50;;;;;;;5.48;94.03;98581.25;5027419;28;20037;-70
2023/01/09 08:39:28;;;;;;;0.60;0.60;;;;;;;5.40;94.29;98579.66;5027156;28;20053;-71
2023/01/09 08:47:23;;;;;;;0.50;0.50;;;;;;;5.19;94.97;98576.56;5027280;28;20037;-72
2023/01/09 08:49:48;;;;;;;0.50;0.50;;;;;;;5.19;95.73;98580.88;5026834;28;20091;-72
2023/01/09 08:52:14;;;;;;;0.50;0.50;;;;;;;5.29;95.41;98581.53;5025631;28;20109;-71
2023/01/09 08:54:39;;;;;;;0.50;0.50;;;;;;;5.46;94.77;98582.13;5027123;28;20026;-69
2023/01/09 08:57:07;;;;;;;0.50;0.50;;;;;;;5.38;94.58;98571.13;5027100;28;20082;-73
2023/01/09 08:59:33;;;;;;;0.60;0.60;;;;;;;5.40;95.44;98577.06;5027074;28;20033;-70
2023/01/09 09:01:59;;;;;;;0.60;0.60;;;;;;;5.39;94.59;98566.81;5025594;28;20030;-72
2023/01/09 09:04:24;;;;;;;0.95;0.95;;;;;;;5.52;93.49;98572.59;5025843;28;20022;-72
2023/01/09 09:06:50;;;;;;;0.50;0.50;;;;;;;5.51;93.92;98571.75;5026889;28;20386;-74
2023/01/09 09:09:15;;;;;;;0.50;0.50;;;;;;;5.37;94.88;98568.56;5026813;28;20025;-71
2023/01/09 09:11:41;;;;;;;0.98;0.98;;;;;;;5.43;94.34;98559.00;5025548;28;20041;-73
2023/01/09 09:16:51;;;;;;;0.50;0.50;;;;;;;5.30;95.61;98554.97;5026972;28;20064;-71
2023/01/09 09:19:16;;;;;;;0.40;0.40;;;;;;;5.30;95.11;98542.09;5026393;28;20026;-72
2023/01/09 09:21:42;;;;;;;0.50;0.50;;;;;;;5.41;95.24;98541.91;5041765;28;20096;-70
2023/01/09 09:24:07;;;;;;;1.52;1.45;;;;;;;5.29;95.71;98535.22;5026300;28;20030;-73
2023/01/09 09:26:33;;;;;;;0.50;0.50;;;;;;;5.31;96.29;98544.63;5025004;28;20033;-73
2023/01/09 09:28:58;;;;;;;0.50;0.50;;;;;;;5.43;95.84;98546.13;5026477;28;20029;-73
2023/01/09 09:31:24;;;;;;;0.40;0.40;;;;;;;5.80;93.37;98546.34;5026515;28;20025;-72
2023/01/09 09:33:49;;;;;;;0.50;0.50;;;;;;;5.54;93.97;98532.25;5026321;28;20029;-72
2023/01/09 09:36:15;;;;;;;0.40;0.40;;;;;;;5.45;94.89;98539.25;5026382;28;20032;-71
2023/01/09 09:38:40;;;;;;;0.50;0.50;;;;;;;5.37;95.13;98515.38;5026054;28;20142;-71
2023/01/09 09:44:45;;;;;;;0.50;0.50;;;;;;;5.50;95.31;98530.59;5026145;28;20083;-72
2023/01/09 09:47:19;;;;;;;0.50;0.50;;;;;;;5.48;95.27;98522.88;5026575;28;20033;-71
2023/01/09 09:50:11;;;;;;;0.50;0.50;;;;;;;5.43;95.94;98522.97;5025925;28;20033;-71
2023/01/09 09:52:39;;;;;;;0.60;0.60;;;;;;;5.74;94.08;98525.84;5026144;28;20021;-72
2023/01/09 09:55:19;;;;;;;0.50;0.50;;;;;;;5.55;95.52;98526.22;5026087;28;20050;-73
2023/01/09 09:57:46;;;;;;;0.88;0.88;;;;;;;5.71;94.59;98534.50;5041060;28;20026;-70
2023/01/09 10:00:19;;;;;;;0.50;0.50;;;;;;;5.83;92.55;98528.28;5025903;28;20026;-71
2023/01/09 10:02:44;;;;;;;0.50;0.50;;;;;;;5.77;93.52;98533.53;5026018;28;20036;-73
2023/01/09 10:05:22;;;;;;;0.50;0.50;;;;;;;5.73;93.51;98529.31;5025555;28;20121;-71
2023/01/09 10:07:51;;;;;;;0.50;0.50;;;;;;;5.72;94.14;98525.88;5026152;28;20033;-73
2023/01/09 10:10:33;;;;;;;0.60;0.60;;;;;;;5.66;94.71;98526.88;5040952;28;20168;-72
2023/01/09 10:14:03;;;;;;;0.55;0.55;;;;;;;5.70;94.58;98528.50;5025632;28;20085;-72
2023/01/09 10:15:58;;;;;;;0.50;0.50;;;;;;;5.82;94.12;98517.13;5025669;28;20061;-71
2023/01/09 10:18:42;;;;;;;0.50;0.50;;;;;;;5.92;93.28;98530.69;5025709;28;20022;-73
2023/01/09 10:21:16;;;;;;;0.55;0.55;;;;;;;5.78;93.87;98517.22;5025416;28;20041;-72
2023/01/09 10:23:57;;;;;;;0.50;0.50;;;;;;;5.80;94.54;98525.75;5025300;28;20037;-73
2023/01/09 10:26:37;;;;;;;0.50;0.50;;;;;;;5.91;94.68;98508.34;5040549;28;20036;-71
2023/01/09 10:29:36;;;;;;;0.50;0.50;;;;;;;5.86;94.08;98515.34;5025469;28;20034;-72
2023/01/09 10:32:18;;;;;;;0.50;0.50;;;;;;;5.88;94.16;98518.72;5025523;28;20211;-72
2023/01/09 10:34:49;;;;;;;;;;;;;;;6.08;93.68;98517.50;5025731;28;20021;-71
2023/01/09 10:37:19;;;;;;;0.50;0.50;;;;;;;5.87;93.85;98501.56;5025601;28;19915;-73
2023/01/09 10:39:54;;;;;;;0.52;0.52;;;;;;;5.88;94.57;98503.25;5025241;28;20081;-71
2023/01/09 10:42:46;;;;;;;0.63;0.63;;;;;;;6.01;94.07;98515.88;5025549;28;20018;-72
2023/01/09 10:45:34;;;;;;;1.77;1.67;;;;;;;6.16;93.29;98513.06;5025547;28;20033;-71
2023/01/09 10:48:12;;;;;;;1.35;1.35;;;;;;;6.32;90.81;98513.59;5025187;28;20022;-71
2023/01/09 10:50:44;;;;;;;0.50;0.50;;;;;;;6.19;92.05;98519.88;5024064;28;20405;-70
2023/01/09 10:53:21;;;;;;;0.50;0.50;;;;;;;6.09;93.50;98510.63;5025344;28;20080;-71
2023/01/09 10:55:52;;;;;;;0.50;0.50;;;;;;;6.18;92.51;98515.59;5025392;28;20026;-71
2023/01/09 10:58:20;;;;;;;0.60;0.60;;;;;;;6.23;91.92;98506.03;5025353;28;20088;-71
2023/01/09 11:00:47;;;;;;;0.50;0.50;;;;;;;6.09;92.30;98502.91;5025294;28;20029;-69
2023/01/09 11:03:14;;;;;;;1.77;1.67;;;;;;;6.05;93.03;98502.13;5025080;28;20117;-68
2023/01/09 11:05:41;;;;;;;0.50;0.50;;;;;;;6.02;93.13;98500.41;5024980;28;20029;-69
2023/01/09 11:08:12;;;;;;;0.70;0.70;;;;;;;6.16;92.00;98513.06;5025119;28;20037;-69
2023/01/09 11:10:50;;;;;;;0.50;0.50;;;;;;;6.00;92.80;98496.16;5025280;28;20030;-69
2023/01/09 11:13:47;;;;;;;0.50;0.50;;;;;;;6.05;93.64;98515.00;5024960;28;20037;-70
2023/01/09 11:16:18;;;;;;;0.40;0.40;;;;;;;6.04;93.66;98509.00;5024528;28;20072;-69
2023/01/09 11:18:50;;;;;;;0.50;0.50;;;;;;;6.36;91.59;98510.94;5025078;28;20026;-68
2023/01/09 11:21:21;;;;;;;;;;;;;;;6.21;91.85;98515.53;5025447;28;20026;-69
2023/01/09 11:23:48;;;;;;;0.50;0.50;;;;;;;6.23;90.77;98503.44;5023670;28;19909;-69
2023/01/09 11:26:26;;;;;;;0.50;0.50;;;;;;;6.18;91.11;98515.59;5025149;28;20029;-70
2023/01/09 11:29:06;;;;;;;0.50;0.50;;;;;;;6.16;91.14;98507.91;5028637;28;20030;-70
2023/01/09 11:31:33;;;;;;;0.50;0.50;;;;;;;6.07;92.32;98515.81;5028607;28;20033;-70
2023/01/09 11:33:58;;;;;;;0.70;0.70;;;;;;;6.14;91.72;98509.66;5028538;28;20022;-69
2023/01/09 11:36:24;;;;;;;0.50;0.50;;;;;;;6.22;91.30;98511.22;5028428;28;20036;-70
2023/01/09 11:38:54;;;;;;;0.50;0.50;;;;;;;6.11;92.08;98503.72;5026873;28;20026;-70
2023/01/09 11:41:24;;;;;;;0.50;0.50;;;;;;;6.17;91.60;98508.72;5043563;28;20033;-69
2023/01/09 11:43:52;;;;;;;0.40;0.40;;;;;;;6.18;91.99;98513.03;5028481;28;20026;-70
2023/01/09 11:46:38;;;;;;;0.50;0.50;;;;;;;6.18;91.74;98506.13;5027022;28;20026;-70
2023/01/09 11:49:19;;;;;;;0.50;0.50;;;;;;;6.10;91.86;98507.19;5028400;28;20029;-70
2023/01/09 11:51:45;;;;;;;0.68;0.68;;;;;;;6.15;91.95;98501.03;5028191;28;20053;-70
2023/01/09 11:54:26;;;;;;;0.50;0.50;;;;;;;6.18;91.27;98495.00;5028163;28;20049;-70
2023/01/09 11:56:52;;;;;;;0.50;0.50;;;;;;;6.16;90.66;98492.44;5026957;28;20192;-71
2023/01/09 11:59:20;;;;;;;0.50;0.50;;;;;;;6.19;90.43;98497.53;5028117;28;20095;-71
2023/01/09 12:01:55;;;;;;;0.50;0.50;;;;;;;6.19;90.91;98501.81;5028075;28;20018;-71
2023/01/09 12:04:48;;;;;;;0.50;0.50;;;;;;;6.13;91.65;98499.38;5028027;28;20121;-72
2023/01/09 12:07:29;;;;;;;0.40;0.40;;;;;;;6.30;90.05;98491.28;5028116;28;20021;-69